Sand Point, AK

8:48 PM AKDT on August 20, 2014 (GMT -0800)
Sand Point | Change Station
CLOSE
Current Station
Airport
Location: Sand Point,
Elevation: 23 ft
Nearby Weather Stations

Elev 23 ft 55.31 °N, 160.52 °W | Updated 12 minutes ago

Clear
Clear
61 °F
Feels Like 61 °F
N
9
Wind Variable Wind from South

Today
High -- | Low -- °F
--% Chance of Precip.
Yesterday
High -- | Low -- °F
Precip. -- in
7:25 AM 10:03 PM
Waning Crescent, 17% visible
Pressure 30.15 in
Visibility 10.0 miles
Clouds Clear
Dew Point 52 °F
Humidity 72%
Rainfall 0.00 in
Snow Depth Not available.
UV 1 out of 12
Pollen Not available.
Air Quality Not available.
Flu Activity Not available.
METAR PASD 210436Z AUTO 19008KT 10SM CLR 16/11 A3015 RMK AO1

More Conditions Fewer Conditions

Pressure 30.15 in
Visibility 10.0 miles
Clouds Clear
Dew Point 52 °F
Humidity 72%
Rainfall 0.00 in
Snow Depth Not available.
UV 1 out of 12
Pollen Not available.
Air Quality Not available.
Flu Activity Not available.
METAR PASD 210436Z AUTO 19008KT 10SM CLR 16/11 A3015 RMK AO1

More Conditions Fewer Conditions

10-Day Weather Forecast

Almanac

Astronomy

Aug. 20, 2014 Rise Set
Actual Time 7:25 AM AKDT 10:03 PM AKDT
Civil Twilight 6:44 AM AKDT 10:44 PM AKDT
Nautical Twilight 5:50 AM AKDT 11:37 PM AKDT
Astronomical Twilight 4:42 AM AKDT 12:44 AM AKDT
Moon 2:55 AM AKDT (8/20) 7:15 PM AKDT (8/20)
Length of Visible Light 16h 00m
Length of Day
14h 38m
Tomorrow will be 4m 18s shorter.
Waning Crescent, 17% of the Moon is Illuminated
Aug 21
Waning Crescent
Aug 25
New
Sep 2
First Quarter
Sep 8
Full
Sep 15
Last Quarter

Yesterday's Extremes

State Highs State Lows

Community

WunderPhotos

Upload Photos

1,745,856 photos uploaded!

Nearby

Snow Depth

Station Depth Elevation
Mcneil Canyon 1 in 1320 ft
MF Bradley River 4 in 2300 ft
Cooper Lake 34 in 1200 ft
Grouse Creek Divide 0 in 700 ft
Summit Creek 0 in 1400 ft

Earthquake Activity

City Distance Mag. Time & Date
No recent earthquake activity has been reported nearby.
Minimum magnitude displayed is 2.5.

Coastal Water Temperatures

Place Temperature
No Stations Reporting

Nearby Weather Stations